Time;durP1;ratioP1;P1;durP2;ratioP2;P2;SDS_P1;SDS_P2;PMS_P1;PMS_P2;Temp;Humidity;BMP_temperature;BMP_pressure;BME280_temperature;BME280_humidity;BME280_pressure;Samples;Min_cycle;Max_cycle;Signal;HPM_P1;HPM_P2
2022/03/28 00:00:18;;;;;;;;;;;;;;;;;;1035372;28;890;-26
2022/03/28 00:00:49;;;;;;;;;;;;;;;;;;1035272;28;918;-31
2022/03/28 00:01:19;;;;;;;;;;;;;;;;;;1035355;28;867;-29
2022/03/28 00:01:49;;;;;;;;;;;;;;;;;;1035523;28;850;-28
2022/03/28 00:02:20;;;;;;;;;;;;;;;;;;1035352;28;834;-33
2022/03/28 00:02:50;;;;;;;;;;;;;;;;;;1035479;28;786;-32
2022/03/28 00:03:20;;;;;;;;;;;;;;;;;;1035401;28;984;-29
2022/03/28 00:03:51;;;;;;;;;;;;;;;;;;1035539;28;834;-30
2022/03/28 00:04:21;;;;;;;;;;;;;;;;;;1035446;28;787;-31
2022/03/28 00:04:52;;;;;;;;;;;;;;;;;;1035651;28;810;-31
2022/03/28 00:05:22;;;;;;;;;;;;;;;;;;1035294;28;963;-29
2022/03/28 00:05:52;;;;;;;;;;;;;;;;;;1035644;28;1099;-31
2022/03/28 00:06:23;;;;;;;;;;;;;;;;;;1035362;28;893;-32
2022/03/28 00:06:53;;;;;;;;;;;;;;;;;;1035515;28;779;-30
2022/03/28 00:07:23;;;;;;;;;;;;;;;;;;1035460;28;909;-32
2022/03/28 00:07:54;;;;;;;;;;;;;;;;;;1035350;28;949;-34
2022/03/28 00:08:24;;;;;;;;;;;;;;;;;;1035041;28;1012;-33
2022/03/28 00:08:55;;;;;;;;;;;;;;;;;;1035348;28;914;-33
2022/03/28 00:09:25;;;;;;;;;;;;;;;;;;1035453;28;791;-32
2022/03/28 00:09:55;;;;;;;;;;;;;;;;;;1035571;28;917;-30
2022/03/28 00:10:26;;;;;;;;;;;;;;;;;;1035319;28;1910;-29
2022/03/28 00:10:56;;;;;;;;;;;;;;;;;;1035401;28;902;-31
2022/03/28 00:11:27;;;;;;;;;;;;;;;;;;1035453;28;858;-32
2022/03/28 00:11:57;;;;;;;;;;;;;;;;;;1035262;28;795;-31
2022/03/28 00:12:27;;;;;;;;;;;;;;;;;;1035399;28;977;-32
2022/03/28 00:12:58;;;;;;;;;;;;;;;;;;1035369;28;933;-32
2022/03/28 00:13:28;;;;;;;;;;;;;;;;;;1034602;28;1349;-34
2022/03/28 00:13:59;;;;;;;;;;;;;;;;;;1031276;28;945;-32
2022/03/28 00:14:29;;;;;;;;;;;;;;;;;;1031255;28;890;-31
2022/03/28 00:14:59;;;;;;;;;;;;;;;;;;1031441;28;899;-33
2022/03/28 00:15:30;;;;;;;;;;;;;;;;;;1030986;28;834;-33
2022/03/28 00:16:00;;;;;;;;;;;;;;;;;;1031416;28;870;-33
2022/03/28 00:16:31;;;;;;;;;;;;;;;;;;1031346;28;1645;-27
2022/03/28 00:17:01;;;;;;;;;;;;;;;;;;1031332;28;922;-29
2022/03/28 00:17:32;;;;;;;;;;;;;;;;;;1031332;28;780;-33
2022/03/28 00:18:03;;;;;;;;;;;;;;;;;;1031433;28;869;-34
2022/03/28 00:18:33;;;;;;;;;;;;;;;;;;1031367;28;926;-35
2022/03/28 00:19:04;;;;;;;;;;;;;;;;;;1032202;28;886;-32
2022/03/28 00:19:34;;;;;;;;;;;;;;;;;;1032085;28;945;-33
2022/03/28 00:20:05;;;;;;;;;;;;;;;;;;1032237;28;779;-31
2022/03/28 00:20:35;;;;;;;;;;;;;;;;;;1032090;28;811;-30
2022/03/28 00:21:06;;;;;;;;;;;;;;;;;;1032236;28;866;-31
2022/03/28 00:21:37;;;;;;;;;;;;;;;;;;1031942;28;946;-30
2022/03/28 00:22:07;;;;;;;;;;;;;;;;;;1032264;28;961;-31
2022/03/28 00:22:38;;;;;;;;;;;;;;;;;;1032031;28;1439;-28
2022/03/28 00:23:08;;;;;;;;;;;;;;;;;;1031824;28;1178;-32
2022/03/28 00:23:39;;;;;;;;;;;;;;;;;;1031915;28;937;-28
2022/03/28 00:24:09;;;;;;;;;;;;;;;;;;1032328;28;858;-33
2022/03/28 00:24:39;;;;;;;;;;;;;;;;;;1032136;28;761;-29
2022/03/28 00:25:10;;;;;;;;;;;;;;;;;;1032144;28;1175;-31
2022/03/28 00:25:42;;;;;;;;;;;;;;;;;;1032014;28;890;-30
2022/03/28 00:26:13;;;;;;;;;;;;;;;;;;1032300;28;802;-33
2022/03/28 00:26:43;;;;;;;;;;;;;;;;;;1032069;28;934;-30
2022/03/28 00:27:13;;;;;;;;;;;;;;;;;;1032324;28;989;-31
2022/03/28 00:27:44;;;;;;;;;;;;;;;;;;1031928;28;839;-34
2022/03/28 00:28:15;;;;;;;;;;;;;;;;;;1032241;28;803;-33
2022/03/28 00:28:45;;;;;;;;;;;;;;;;;;1031732;28;1151;-33
2022/03/28 00:29:15;;;;;;;;;;;;;;;;;;1031828;28;891;-29
2022/03/28 00:29:46;;;;;;;;;;;;;;;;;;1031801;28;887;-31
2022/03/28 00:30:16;;;;;;;;;;;;;;;;;;1031226;28;1922;-27
2022/03/28 00:30:48;;;;;;;;;;;;;;;;;;1031835;28;783;-28
2022/03/28 00:31:19;;;;;;;;;;;;;;;;;;1031853;28;902;-34
2022/03/28 00:31:50;;;;;;;;;;;;;;;;;;1027510;28;1361;-31
2022/03/28 00:32:20;;;;;;;;;;;;;;;;;;1027849;28;894;-31
2022/03/28 00:32:50;;;;;;;;;;;;;;;;;;1027822;28;867;-33
2022/03/28 00:33:21;;;;;;;;;;;;;;;;;;1027760;28;902;-34
2022/03/28 00:33:51;;;;;;;;;;;;;;;;;;1032175;28;882;-37
2022/03/28 00:34:23;;;;;;;;;;;;;;;;;;1031939;28;1128;-29
2022/03/28 00:34:55;;;;;;;;;;;;;;;;;;1032139;28;791;-30
2022/03/28 00:35:25;;;;;;;;;;;;;;;;;;1032231;28;969;-32
2022/03/28 00:35:56;;;;;;;;;;;;;;;;;;1031990;28;835;-32
2022/03/28 00:36:26;;;;;;;;;;;;;;;;;;1032602;28;1094;-31
2022/03/28 00:36:57;;;;;;;;;;;;;;;;;;1036041;28;910;-28
2022/03/28 00:37:27;;;;;;;;;;;;;;;;;;1036322;28;802;-32
2022/03/28 00:37:58;;;;;;;;;;;;;;;;;;1035689;28;898;-30
2022/03/28 00:38:28;;;;;;;;;;;;;;;;;;1036121;28;997;-29
2022/03/28 00:38:58;;;;;;;;;;;;;;;;;;1036127;28;827;-31
2022/03/28 00:39:28;;;;;;;;;;;;;;;;;;1036224;28;1046;-29
2022/03/28 00:39:59;;;;;;;;;;;;;;;;;;1036094;28;850;-29
2022/03/28 00:40:31;;;;;;;;;;;;;;;;;;1036247;28;806;-34
2022/03/28 00:41:02;;;;;;;;;;;;;;;;;;1036076;28;794;-31
2022/03/28 00:41:32;;;;;;;;;;;;;;;;;;1036220;28;851;-31
2022/03/28 00:42:03;;;;;;;;;;;;;;;;;;1036103;28;952;-32
2022/03/28 00:42:33;;;;;;;;;;;;;;;;;;1036169;28;823;-31
2022/03/28 00:43:05;;;;;;;;;;;;;;;;;;1036161;28;1022;-30
2022/03/28 00:43:42;;;;;;;;;;;;;;;;;;1036029;28;894;-33
2022/03/28 00:44:12;;;;;;;;;;;;;;;;;;1036307;28;764;-30
2022/03/28 00:44:43;;;;;;;;;;;;;;;;;;1035970;28;882;-30
2022/03/28 00:45:13;;;;;;;;;;;;;;;;;;1035870;28;779;-34
2022/03/28 00:45:44;;;;;;;;;;;;;;;;;;1036143;28;878;-34
2022/03/28 00:46:15;;;;;;;;;;;;;;;;;;1036119;28;878;-30
2022/03/28 00:46:45;;;;;;;;;;;;;;;;;;1036132;28;890;-30
2022/03/28 00:47:16;;;;;;;;;;;;;;;;;;1036178;28;889;-33
2022/03/28 00:47:46;;;;;;;;;;;;;;;;;;1036104;28;811;-28
2022/03/28 00:48:16;;;;;;;;;;;;;;;;;;1036151;28;866;-31
2022/03/28 00:48:47;;;;;;;;;;;;;;;;;;1036062;28;834;-30
2022/03/28 00:49:17;;;;;;;;;;;;;;;;;;1036211;28;894;-29
2022/03/28 00:49:47;;;;;;;;;;;;;;;;;;1036151;28;890;-33
2022/03/28 00:50:18;;;;;;;;;;;;;;;;;;1036047;28;1984;-27
2022/03/28 00:50:48;;;;;;;;;;;;;;;;;;1036105;28;948;-32
2022/03/28 00:51:21;;;;;;;;;;;;;;;;;;1036030;28;819;-29
2022/03/28 00:51:52;;;;;;;;;;;;;;;;;;1036021;28;882;-29
2022/03/28 00:52:22;;;;;;;;;;;;;;;;;;1035860;28;949;-29
2022/03/28 00:52:53;;;;;;;;;;;;;;;;;;1035894;28;882;-30
2022/03/28 00:53:24;;;;;;;;;;;;;;;;;;1036253;28;842;-30
2022/03/28 00:53:55;;;;;;;;;;;;;;;;;;1036012;28;992;-33
2022/03/28 00:54:26;;;;;;;;;;;;;;;;;;1036242;28;878;-33
2022/03/28 00:54:57;;;;;;;;;;;;;;;;;;1035967;28;1008;-30
2022/03/28 00:55:27;;;;;;;;;;;;;;;;;;1036148;28;855;-28
2022/03/28 00:55:58;;;;;;;;;;;;;;;;;;1036095;28;933;-29
2022/03/28 00:56:28;;;;;;;;;;;;;;;;;;1036231;28;1032;-34
2022/03/28 00:56:59;;;;;;;;;;;;;;;;;;1035975;28;854;-32
2022/03/28 00:57:30;;;;;;;;;;;;;;;;;;1036136;28;918;-33
2022/03/28 00:58:00;;;;;;;;;;;;;;;;;;1035900;28;925;-32
2022/03/28 00:58:33;;;;;;;;;;;;;;;;;;1036196;28;906;-32
2022/03/28 00:59:04;;;;;;;;;;;;;;;;;;1036056;28;937;-34
2022/03/28 00:59:35;;;;;;;;;;;;;;;;;;1035952;28;985;-34
2022/03/28 01:00:07;;;;;;;;;;;;;;;;;;1035759;28;807;-29
2022/03/28 01:00:37;;;;;;;;;;;;;;;;;;1036071;28;959;-29
2022/03/28 01:01:09;;;;;;;;;;;;;;;;;;1036041;28;988;-34
2022/03/28 01:01:39;;;;;;;;;;;;;;;;;;1035966;28;937;-33
2022/03/28 01:02:10;;;;;;;;;;;;;;;;;;1036014;28;953;-31
2022/03/28 01:02:40;;;;;;;;;;;;;;;;;;1036256;28;858;-31
2022/03/28 01:03:10;;;;;;;;;;;;;;;;;;1035870;28;953;-32
2022/03/28 01:03:41;;;;;;;;;;;;;;;;;;1036134;28;897;-30
2022/03/28 01:04:11;;;;;;;;;;;;;;;;;;1036026;28;842;-30
2022/03/28 01:04:41;;;;;;;;;;;;;;;;;;1036072;28;866;-32
2022/03/28 01:05:12;;;;;;;;;;;;;;;;;;1036055;28;834;-29
2022/03/28 01:05:43;;;;;;;;;;;;;;;;;;1036113;28;922;-33
2022/03/28 01:06:13;;;;;;;;;;;;;;;;;;1035951;28;945;-32
2022/03/28 01:06:43;;;;;;;;;;;;;;;;;;1036276;28;895;-32
2022/03/28 01:07:14;;;;;;;;;;;;;;;;;;1035526;28;929;-27
2022/03/28 01:07:44;;;;;;;;;;;;;;;;;;1036116;28;914;-30
2022/03/28 01:08:14;;;;;;;;;;;;;;;;;;1036001;28;823;-33
2022/03/28 01:08:45;;;;;;;;;;;;;;;;;;1036129;28;949;-34
2022/03/28 01:09:16;;;;;;;;;;;;;;;;;;1036009;28;882;-33
2022/03/28 01:09:46;;;;;;;;;;;;;;;;;;1036117;28;922;-31
2022/03/28 01:10:16;;;;;;;;;;;;;;;;;;1035883;28;1981;-34
2022/03/28 01:10:48;;;;;;;;;;;;;;;;;;1036238;28;894;-33
2022/03/28 01:11:18;;;;;;;;;;;;;;;;;;1035551;28;834;-31
2022/03/28 01:11:49;;;;;;;;;;;;;;;;;;1035625;28;999;-33
2022/03/28 01:12:19;;;;;;;;;;;;;;;;;;1035708;28;1580;-33
2022/03/28 01:12:50;;;;;;;;;;;;;;;;;;1035661;28;1000;-31
2022/03/28 01:13:20;;;;;;;;;;;;;;;;;;1036084;28;877;-31
2022/03/28 01:13:51;;;;;;;;;;;;;;;;;;1035859;28;1172;-32
2022/03/28 01:14:21;;;;;;;;;;;;;;;;;;1036068;28;945;-30
2022/03/28 01:14:52;;;;;;;;;;;;;;;;;;1035734;28;921;-32
2022/03/28 01:15:22;;;;;;;;;;;;;;;;;;1035890;28;870;-28
2022/03/28 01:15:52;;;;;;;;;;;;;;;;;;1035752;28;1422;-33
2022/03/28 01:16:23;;;;;;;;;;;;;;;;;;1035552;28;973;-29
2022/03/28 01:18:47;;;;;;;;;;;;;;;;;;1031340;28;1636;-33
2022/03/28 01:19:18;;;;;;;;;;;;;;;;;;1035652;28;886;-28
2022/03/28 01:19:48;;;;;;;;;;;;;;;;;;1036061;28;933;-30
2022/03/28 01:20:19;;;;;;;;;;;;;;;;;;1035975;28;846;-28
2022/03/28 01:20:50;;;;;;;;;;;;;;;;;;1036042;28;910;-30
2022/03/28 01:21:20;;;;;;;;;;;;;;;;;;1036014;28;1061;-30
2022/03/28 01:21:51;;;;;;;;;;;;;;;;;;1035870;28;985;-32
2022/03/28 01:22:22;;;;;;;;;;;;;;;;;;1035511;28;897;-29
2022/03/28 01:22:52;;;;;;;;;;;;;;;;;;1035904;28;1068;-30
2022/03/28 01:23:23;;;;;;;;;;;;;;;;;;1035995;28;942;-28
2022/03/28 01:23:54;;;;;;;;;;;;;;;;;;1036119;28;862;-29
2022/03/28 01:24:24;;;;;;;;;;;;;;;;;;1035873;28;972;-29
2022/03/28 01:24:58;;;;;;;;;;;;;;;;;;1036059;28;964;-30
2022/03/28 01:25:29;;;;;;;;;;;;;;;;;;1035966;28;945;-30
2022/03/28 01:26:00;;;;;;;;;;;;;;;;;;1036084;28;894;-33
2022/03/28 01:26:30;;;;;;;;;;;;;;;;;;1035876;28;1013;-32
2022/03/28 01:27:01;;;;;;;;;;;;;;;;;;1036032;28;961;-32
2022/03/28 01:27:32;;;;;;;;;;;;;;;;;;1035930;28;997;-30
2022/03/28 01:28:03;;;;;;;;;;;;;;;;;;1036066;28;815;-32
2022/03/28 01:28:33;;;;;;;;;;;;;;;;;;1035821;28;993;-32
2022/03/28 01:29:05;;;;;;;;;;;;;;;;;;1036048;28;815;-29
2022/03/28 01:29:35;;;;;;;;;;;;;;;;;;1035575;28;862;-29
2022/03/28 01:30:06;;;;;;;;;;;;;;;;;;1033733;28;1914;-32
2022/03/28 01:30:36;;;;;;;;;;;;;;;;;;1031472;28;925;-32
2022/03/28 01:31:07;;;;;;;;;;;;;;;;;;1031901;28;846;-31
2022/03/28 01:31:38;;;;;;;;;;;;;;;;;;1031957;28;882;-32
2022/03/28 01:32:09;;;;;;;;;;;;;;;;;;1031872;28;1001;-32
2022/03/28 01:32:39;;;;;;;;;;;;;;;;;;1031929;28;977;-31
2022/03/28 01:33:10;;;;;;;;;;;;;;;;;;1031902;28;965;-32
2022/03/28 01:33:40;;;;;;;;;;;;;;;;;;1031854;28;945;-30
2022/03/28 01:34:17;;;;;;;;;;;;;;;;;;1031896;28;934;-32
2022/03/28 01:34:48;;;;;;;;;;;;;;;;;;1031879;28;1012;-33
2022/03/28 01:35:44;;;;;;;;;;;;;;;;;;1031855;28;878;-29
2022/03/28 01:36:19;;;;;;;;;;;;;;;;;;1029635;28;1387;-33
2022/03/28 01:36:49;;;;;;;;;;;;;;;;;;1031541;28;902;-34
2022/03/28 01:37:19;;;;;;;;;;;;;;;;;;1031924;28;1059;-32
2022/03/28 01:37:49;;;;;;;;;;;;;;;;;;1034557;28;921;-29
2022/03/28 01:38:20;;;;;;;;;;;;;;;;;;1036006;28;823;-34
2022/03/28 01:38:51;;;;;;;;;;;;;;;;;;1035907;28;890;-32
2022/03/28 01:39:21;;;;;;;;;;;;;;;;;;1035972;28;822;-32
2022/03/28 01:39:52;;;;;;;;;;;;;;;;;;1035897;28;1626;-31
2022/03/28 01:40:22;;;;;;;;;;;;;;;;;;1035950;28;977;-29
2022/03/28 01:40:53;;;;;;;;;;;;;;;;;;1035928;28;937;-30
2022/03/28 01:41:23;;;;;;;;;;;;;;;;;;1035887;28;930;-32
2022/03/28 01:41:53;;;;;;;;;;;;;;;;;;1035823;28;811;-26
2022/03/28 01:42:24;;;;;;;;;;;;;;;;;;1036108;28;882;-32
2022/03/28 01:42:54;;;;;;;;;;;;;;;;;;1035818;28;807;-26
2022/03/28 01:43:25;;;;;;;;;;;;;;;;;;1035936;28;830;-30
2022/03/28 01:43:55;;;;;;;;;;;;;;;;;;1035896;28;1265;-28
2022/03/28 01:44:25;;;;;;;;;;;;;;;;;;1035581;28;906;-32
2022/03/28 01:44:57;;;;;;;;;;;;;;;;;;1035972;28;850;-33
2022/03/28 01:45:28;;;;;;;;;;;;;;;;;;1035818;28;905;-33
2022/03/28 01:45:58;;;;;;;;;;;;;;;;;;1036014;28;893;-29
2022/03/28 01:46:28;;;;;;;;;;;;;;;;;;1035883;28;961;-28
2022/03/28 01:46:59;;;;;;;;;;;;;;;;;;1039665;28;818;-34
2022/03/28 01:47:29;;;;;;;;;;;;;;;;;;1039535;28;862;-29
2022/03/28 01:47:59;;;;;;;;;;;;;;;;;;1039705;28;917;-29
2022/03/28 01:48:29;;;;;;;;;;;;;;;;;;1039520;28;905;-33
2022/03/28 01:49:00;;;;;;;;;;;;;;;;;;1036115;28;898;-29
2022/03/28 01:49:31;;;;;;;;;;;;;;;;;;1035831;28;874;-29
2022/03/28 01:50:01;;;;;;;;;;;;;;;;;;1035877;28;965;-32
2022/03/28 01:50:32;;;;;;;;;;;;;;;;;;1035906;28;2020;-33
2022/03/28 01:51:02;;;;;;;;;;;;;;;;;;1035925;28;1012;-32
2022/03/28 01:51:33;;;;;;;;;;;;;;;;;;1035593;28;901;-31
2022/03/28 01:52:03;;;;;;;;;;;;;;;;;;1035758;28;1231;-31
2022/03/28 01:52:33;;;;;;;;;;;;;;;;;;1035790;28;929;-32
2022/03/28 01:53:04;;;;;;;;;;;;;;;;;;1035938;28;799;-31
2022/03/28 01:53:35;;;;;;;;;;;;;;;;;;1035751;28;953;-31
2022/03/28 01:54:05;;;;;;;;;;;;;;;;;;1035914;28;945;-29
2022/03/28 01:54:35;;;;;;;;;;;;;;;;;;1035860;28;827;-28
2022/03/28 01:55:07;;;;;;;;;;;;;;;;;;1035847;28;1475;-26
2022/03/28 01:55:38;;;;;;;;;;;;;;;;;;1035955;28;886;-30
2022/03/28 01:56:09;;;;;;;;;;;;;;;;;;1035699;28;858;-30
2022/03/28 01:56:40;;;;;;;;;;;;;;;;;;1035888;28;767;-27
2022/03/28 01:57:10;;;;;;;;;;;;;;;;;;1035955;28;830;-29
2022/03/28 01:57:42;;;;;;;;;;;;;;;;;;1035748;28;890;-30
2022/03/28 01:58:12;;;;;;;;;;;;;;;;;;1035925;28;791;-28
2022/03/28 01:58:43;;;;;;;;;;;;;;;;;;1035828;28;989;-32
2022/03/28 01:59:14;;;;;;;;;;;;;;;;;;1035464;28;823;-30
2022/03/28 01:59:44;;;;;;;;;;;;;;;;;;1035950;28;870;-30
2022/03/28 02:00:15;;;;;;;;;;;;;;;;;;1035693;28;871;-31
2022/03/28 02:00:46;;;;;;;;;;;;;;;;;;1036086;28;972;-33
2022/03/28 02:01:16;;;;;;;;;;;;;;;;;;1035836;28;901;-30
2022/03/28 02:01:48;;;;;;;;;;;;;;;;;;1035733;28;795;-32
2022/03/28 02:02:18;;;;;;;;;;;;;;;;;;1035879;28;854;-30
2022/03/28 02:02:48;;;;;;;;;;;;;;;;;;1035804;28;952;-31
2022/03/28 02:03:19;;;;;;;;;;;;;;;;;;1035891;28;921;-32
2022/03/28 02:03:49;;;;;;;;;;;;;;;;;;1035815;28;913;-33
2022/03/28 02:04:19;;;;;;;;;;;;;;;;;;1035723;28;917;-30
2022/03/28 02:04:50;;;;;;;;;;;;;;;;;;1035961;28;854;-29
2022/03/28 02:05:20;;;;;;;;;;;;;;;;;;1035801;28;1204;-29
2022/03/28 02:05:51;;;;;;;;;;;;;;;;;;1035820;28;890;-29
2022/03/28 02:06:21;;;;;;;;;;;;;;;;;;1035680;28;779;-32
2022/03/28 02:06:52;;;;;;;;;;;;;;;;;;1035666;28;898;-29
2022/03/28 02:07:22;;;;;;;;;;;;;;;;;;1035944;28;847;-30
2022/03/28 02:07:52;;;;;;;;;;;;;;;;;;1035791;28;879;-31
2022/03/28 02:08:23;;;;;;;;;;;;;;;;;;1035749;28;921;-30
2022/03/28 02:08:53;;;;;;;;;;;;;;;;;;1035806;28;851;-28
2022/03/28 02:09:24;;;;;;;;;;;;;;;;;;1035820;28;906;-32
2022/03/28 02:09:55;;;;;;;;;;;;;;;;;;1035873;28;874;-34
2022/03/28 02:10:26;;;;;;;;;;;;;;;;;;1035812;28;1977;-32
2022/03/28 02:10:56;;;;;;;;;;;;;;;;;;1035640;28;953;-32
2022/03/28 02:11:27;;;;;;;;;;;;;;;;;;1035763;28;791;-32
2022/03/28 02:11:57;;;;;;;;;;;;;;;;;;1035711;28;1021;-31
2022/03/28 02:12:27;;;;;;;;;;;;;;;;;;1035754;28;949;-30
2022/03/28 02:12:57;;;;;;;;;;;;;;;;;;1035938;28;874;-32
2022/03/28 02:13:28;;;;;;;;;;;;;;;;;;1035701;28;891;-29
2022/03/28 02:13:58;;;;;;;;;;;;;;;;;;1035609;28;827;-31
2022/03/28 02:14:28;;;;;;;;;;;;;;;;;;1035733;28;994;-31
2022/03/28 02:14:59;;;;;;;;;;;;;;;;;;1035760;28;918;-31
2022/03/28 02:15:29;;;;;;;;;;;;;;;;;;1035724;28;1281;-29
2022/03/28 02:16:00;;;;;;;;;;;;;;;;;;1035824;28;1657;-31
2022/03/28 02:16:31;;;;;;;;;;;;;;;;;;1035792;28;882;-29
2022/03/28 02:17:01;;;;;;;;;;;;;;;;;;1035851;28;870;-29
2022/03/28 02:17:32;;;;;;;;;;;;;;;;;;1035714;28;815;-31
2022/03/28 02:18:03;;;;;;;;;;;;;;;;;;1035925;28;866;-33
2022/03/28 02:18:33;;;;;;;;;;;;;;;;;;1035676;28;899;-33
2022/03/28 02:19:04;;;;;;;;;;;;;;;;;;1035836;28;923;-32
2022/03/28 02:19:34;;;;;;;;;;;;;;;;;;1035692;28;894;-32
2022/03/28 02:20:05;;;;;;;;;;;;;;;;;;1035829;28;910;-29
2022/03/28 02:20:36;;;;;;;;;;;;;;;;;;1035717;28;933;-27
2022/03/28 02:21:06;;;;;;;;;;;;;;;;;;1035674;28;846;-32
2022/03/28 02:21:37;;;;;;;;;;;;;;;;;;1035344;28;909;-29
2022/03/28 02:22:07;;;;;;;;;;;;;;;;;;1035823;28;914;-30
2022/03/28 02:22:38;;;;;;;;;;;;;;;;;;1035648;28;929;-31
2022/03/28 02:23:09;;;;;;;;;;;;;;;;;;1035665;28;1283;-31
2022/03/28 02:23:39;;;;;;;;;;;;;;;;;;1035767;28;948;-31
2022/03/28 02:24:10;;;;;;;;;;;;;;;;;;1035648;28;966;-30
2022/03/28 02:24:40;;;;;;;;;;;;;;;;;;1035864;28;906;-32
2022/03/28 02:25:11;;;;;;;;;;;;;;;;;;1035805;28;838;-29
2022/03/28 02:25:42;;;;;;;;;;;;;;;;;;1035724;28;957;-29
2022/03/28 02:26:14;;;;;;;;;;;;;;;;;;1035826;28;878;-32
2022/03/28 02:26:44;;;;;;;;;;;;;;;;;;1035710;28;814;-34
2022/03/28 02:27:14;;;;;;;;;;;;;;;;;;1035878;28;866;-28
2022/03/28 02:27:45;;;;;;;;;;;;;;;;;;1035638;28;925;-33
2022/03/28 02:28:15;;;;;;;;;;;;;;;;;;1035775;28;878;-28
2022/03/28 02:28:47;;;;;;;;;;;;;;;;;;1035427;28;830;-33
2022/03/28 02:29:18;;;;;;;;;;;;;;;;;;1035791;28;850;-31
2022/03/28 02:29:48;;;;;;;;;;;;;;;;;;1035640;28;895;-31
2022/03/28 02:30:18;;;;;;;;;;;;;;;;;;1028943;28;1910;-34
2022/03/28 02:30:49;;;;;;;;;;;;;;;;;;1030285;28;811;-33
2022/03/28 02:31:19;;;;;;;;;;;;;;;;;;1031825;28;887;-30
2022/03/28 02:31:49;;;;;;;;;;;;;;;;;;1031389;28;902;-32
2022/03/28 02:32:20;;;;;;;;;;;;;;;;;;1031817;28;870;-30
2022/03/28 02:32:50;;;;;;;;;;;;;;;;;;1031638;28;1004;-29
2022/03/28 02:33:21;;;;;;;;;;;;;;;;;;1031772;28;870;-31
2022/03/28 02:33:51;;;;;;;;;;;;;;;;;;1031576;28;899;-31
2022/03/28 02:34:21;;;;;;;;;;;;;;;;;;1031727;28;929;-29
2022/03/28 02:34:52;;;;;;;;;;;;;;;;;;1031604;28;812;-31
2022/03/28 02:35:23;;;;;;;;;;;;;;;;;;1031850;28;871;-31
2022/03/28 02:35:53;;;;;;;;;;;;;;;;;;1031347;28;938;-29
2022/03/28 02:36:23;;;;;;;;;;;;;;;;;;1031570;28;922;-32
2022/03/28 02:36:54;;;;;;;;;;;;;;;;;;1031593;28;930;-30
2022/03/28 02:37:24;;;;;;;;;;;;;;;;;;1031741;28;1082;-33
2022/03/28 02:37:57;;;;;;;;;;;;;;;;;;1035582;28;830;-31
2022/03/28 02:38:27;;;;;;;;;;;;;;;;;;1035602;28;921;-35
2022/03/28 02:38:58;;;;;;;;;;;;;;;;;;1035797;28;1102;-32
2022/03/28 02:39:29;;;;;;;;;;;;;;;;;;1035729;28;814;-28
2022/03/28 02:39:59;;;;;;;;;;;;;;;;;;1035620;28;922;-32
2022/03/28 02:40:29;;;;;;;;;;;;;;;;;;1035787;28;938;-30
2022/03/28 02:41:00;;;;;;;;;;;;;;;;;;1035632;28;854;-34
2022/03/28 02:41:30;;;;;;;;;;;;;;;;;;1035509;28;945;-32
2022/03/28 02:42:01;;;;;;;;;;;;;;;;;;1035648;28;855;-31
2022/03/28 02:42:31;;;;;;;;;;;;;;;;;;1035568;28;945;-34
2022/03/28 02:43:02;;;;;;;;;;;;;;;;;;1035762;28;965;-32
2022/03/28 02:43:32;;;;;;;;;;;;;;;;;;1035284;28;865;-30
2022/03/28 02:44:03;;;;;;;;;;;;;;;;;;1035757;28;906;-27
2022/03/28 02:44:33;;;;;;;;;;;;;;;;;;1035576;28;938;-33
2022/03/28 02:45:04;;;;;;;;;;;;;;;;;;1035723;28;934;-32
2022/03/28 02:45:35;;;;;;;;;;;;;;;;;;1035607;28;1510;-29
2022/03/28 02:46:07;;;;;;;;;;;;;;;;;;1035738;28;772;-29
2022/03/28 02:46:37;;;;;;;;;;;;;;;;;;1035607;28;882;-31
2022/03/28 02:47:08;;;;;;;;;;;;;;;;;;1035634;28;897;-31
2022/03/28 02:47:38;;;;;;;;;;;;;;;;;;1035618;28;913;-30
2022/03/28 02:48:09;;;;;;;;;;;;;;;;;;1035733;28;894;-28
2022/03/28 02:48:39;;;;;;;;;;;;;;;;;;1035686;28;886;-30
2022/03/28 02:49:10;;;;;;;;;;;;;;;;;;1035496;28;965;-31
2022/03/28 02:49:40;;;;;;;;;;;;;;;;;;1035681;28;1256;-30
2022/03/28 02:50:10;;;;;;;;;;;;;;;;;;1035548;28;1906;-26
2022/03/28 02:50:41;;;;;;;;;;;;;;;;;;1035573;28;929;-26
2022/03/28 02:51:11;;;;;;;;;;;;;;;;;;1035382;28;803;-32
2022/03/28 02:51:42;;;;;;;;;;;;;;;;;;1035441;28;933;-29
2022/03/28 02:52:12;;;;;;;;;;;;;;;;;;1035637;28;1022;-30
2022/03/28 02:52:42;;;;;;;;;;;;;;;;;;1035638;28;775;-28
2022/03/28 02:53:13;;;;;;;;;;;;;;;;;;1035693;28;956;-34
2022/03/28 02:53:43;;;;;;;;;;;;;;;;;;1035756;28;791;-29
2022/03/28 02:54:13;;;;;;;;;;;;;;;;;;1035610;28;889;-31
2022/03/28 02:54:44;;;;;;;;;;;;;;;;;;1035696;28;984;-29
2022/03/28 02:55:15;;;;;;;;;;;;;;;;;;1035749;28;842;-30
2022/03/28 02:55:47;;;;;;;;;;;;;;;;;;1035551;28;1031;-30
2022/03/28 02:56:17;;;;;;;;;;;;;;;;;;1035634;28;996;-25
2022/03/28 02:56:48;;;;;;;;;;;;;;;;;;1035478;28;1607;-29
2022/03/28 02:57:18;;;;;;;;;;;;;;;;;;1035761;28;905;-31
2022/03/28 02:57:48;;;;;;;;;;;;;;;;;;1035562;28;1001;-29
2022/03/28 02:58:19;;;;;;;;;;;;;;;;;;1035190;28;1544;-32
2022/03/28 02:58:49;;;;;;;;;;;;;;;;;;1035618;28;849;-30
2022/03/28 02:59:19;;;;;;;;;;;;;;;;;;1035616;28;881;-29
2022/03/28 02:59:50;;;;;;;;;;;;;;;;;;1035605;28;849;-28
2022/03/28 03:00:23;;;;;;;;;;;;;;;;;;1035722;28;894;-29
2022/03/28 03:00:54;;;;;;;;;;;;;;;;;;1035506;28;929;-30
2022/03/28 03:01:24;;;;;;;;;;;;;;;;;;1035736;28;902;-30
2022/03/28 03:01:55;;;;;;;;;;;;;;;;;;1035531;28;938;-32
2022/03/28 03:02:25;;;;;;;;;;;;;;;;;;1035521;28;925;-31
2022/03/28 03:02:56;;;;;;;;;;;;;;;;;;1035708;28;948;-26
2022/03/28 03:03:26;;;;;;;;;;;;;;;;;;1035405;28;874;-29
2022/03/28 03:03:56;;;;;;;;;;;;;;;;;;1035722;28;823;-30
2022/03/28 03:04:27;;;;;;;;;;;;;;;;;;1035681;28;965;-32
2022/03/28 03:04:57;;;;;;;;;;;;;;;;;;1035681;28;894;-32
2022/03/28 03:05:27;;;;;;;;;;;;;;;;;;1035494;28;934;-29
2022/03/28 03:05:58;;;;;;;;;;;;;;;;;;1035260;28;886;-31
2022/03/28 03:06:28;;;;;;;;;;;;;;;;;;1035143;28;1608;-28
2022/03/28 03:06:59;;;;;;;;;;;;;;;;;;1035400;28;949;-34
2022/03/28 03:07:29;;;;;;;;;;;;;;;;;;1035110;28;881;-27
2022/03/28 03:07:59;;;;;;;;;;;;;;;;;;1035308;28;906;-32
2022/03/28 03:08:30;;;;;;;;;;;;;;;;;;1035548;28;925;-28
2022/03/28 03:09:00;;;;;;;;;;;;;;;;;;1035683;28;799;-26
2022/03/28 03:09:30;;;;;;;;;;;;;;;;;;1035577;28;961;-28
2022/03/28 03:10:00;;;;;;;;;;;;;;;;;;1035610;28;822;-29
2022/03/28 03:10:33;;;;;;;;;;;;;;;;;;1035481;28;1923;-28
2022/03/28 03:11:03;;;;;;;;;;;;;;;;;;1035772;28;1009;-32
2022/03/28 03:11:33;;;;;;;;;;;;;;;;;;1035224;28;941;-31
2022/03/28 03:12:04;;;;;;;;;;;;;;;;;;1035693;28;913;-33
2022/03/28 03:12:34;;;;;;;;;;;;;;;;;;1035597;28;873;-33
2022/03/28 03:13:05;;;;;;;;;;;;;;;;;;1035170;28;906;-29
2022/03/28 03:13:36;;;;;;;;;;;;;;;;;;1035574;28;902;-28
2022/03/28 03:14:06;;;;;;;;;;;;;;;;;;1035520;28;786;-30
2022/03/28 03:14:37;;;;;;;;;;;;;;;;;;1035669;28;965;-27
2022/03/28 03:15:07;;;;;;;;;;;;;;;;;;1035598;28;783;-28
2022/03/28 03:15:41;;;;;;;;;;;;;;;;;;1035499;28;1291;-28
2022/03/28 03:16:11;;;;;;;;;;;;;;;;;;1035499;28;910;-32
2022/03/28 03:16:41;;;;;;;;;;;;;;;;;;1035629;28;806;-28
2022/03/28 03:17:12;;;;;;;;;;;;;;;;;;1035597;28;945;-29
2022/03/28 03:17:42;;;;;;;;;;;;;;;;;;1035594;28;862;-29
2022/03/28 03:18:12;;;;;;;;;;;;;;;;;;1035391;28;966;-31
2022/03/28 03:18:43;;;;;;;;;;;;;;;;;;1035719;28;802;-33
2022/03/28 03:19:13;;;;;;;;;;;;;;;;;;1035501;28;921;-30
2022/03/28 03:19:44;;;;;;;;;;;;;;;;;;1035719;28;783;-31
2022/03/28 03:20:15;;;;;;;;;;;;;;;;;;1035479;28;969;-28
2022/03/28 03:20:45;;;;;;;;;;;;;;;;;;1035148;28;874;-30
2022/03/28 03:21:16;;;;;;;;;;;;;;;;;;1035604;28;1170;-29
2022/03/28 03:21:46;;;;;;;;;;;;;;;;;;1035456;28;783;-34
2022/03/28 03:22:17;;;;;;;;;;;;;;;;;;1035540;28;866;-32
2022/03/28 03:22:47;;;;;;;;;;;;;;;;;;1035381;28;1067;-29
2022/03/28 03:23:17;;;;;;;;;;;;;;;;;;1035579;28;879;-31
2022/03/28 03:23:48;;;;;;;;;;;;;;;;;;1035416;28;1020;-31
2022/03/28 03:24:18;;;;;;;;;;;;;;;;;;1035668;28;902;-31
2022/03/28 03:24:48;;;;;;;;;;;;;;;;;;1035400;28;984;-32
2022/03/28 03:25:18;;;;;;;;;;;;;;;;;;1035772;28;878;-33
2022/03/28 03:25:49;;;;;;;;;;;;;;;;;;1035359;28;1672;-34
2022/03/28 03:26:19;;;;;;;;;;;;;;;;;;1035569;28;933;-32
2022/03/28 03:26:49;;;;;;;;;;;;;;;;;;1035479;28;859;-31
2022/03/28 03:27:20;;;;;;;;;;;;;;;;;;1035625;28;981;-31
2022/03/28 03:27:51;;;;;;;;;;;;;;;;;;1035048;28;918;-30
2022/03/28 03:28:22;;;;;;;;;;;;;;;;;;1035603;28;946;-30
2022/03/28 03:28:55;;;;;;;;;;;;;;;;;;1035385;28;917;-29
2022/03/28 03:29:26;;;;;;;;;;;;;;;;;;1035599;28;910;-27
2022/03/28 03:29:56;;;;;;;;;;;;;;;;;;1034612;28;1041;-32
2022/03/28 03:30:27;;;;;;;;;;;;;;;;;;1027468;28;1982;-29
2022/03/28 03:30:57;;;;;;;;;;;;;;;;;;1031351;28;911;-31
2022/03/28 03:31:27;;;;;;;;;;;;;;;;;;1031436;28;799;-31
2022/03/28 03:31:58;;;;;;;;;;;;;;;;;;1031493;28;843;-30
2022/03/28 03:32:28;;;;;;;;;;;;;;;;;;1031407;28;815;-28
2022/03/28 03:32:58;;;;;;;;;;;;;;;;;;1031540;28;957;-33
2022/03/28 03:33:29;;;;;;;;;;;;;;;;;;1031509;28;962;-30
2022/03/28 03:33:59;;;;;;;;;;;;;;;;;;1031429;28;875;-29
2022/03/28 03:34:30;;;;;;;;;;;;;;;;;;1031500;28;823;-28
2022/03/28 03:35:01;;;;;;;;;;;;;;;;;;1031407;28;942;-29
2022/03/28 03:35:31;;;;;;;;;;;;;;;;;;1031167;28;783;-33
2022/03/28 03:36:02;;;;;;;;;;;;;;;;;;1031551;28;914;-28
2022/03/28 03:36:33;;;;;;;;;;;;;;;;;;1031359;28;930;-29
2022/03/28 03:37:04;;;;;;;;;;;;;;;;;;1031501;28;874;-31
2022/03/28 03:37:34;;;;;;;;;;;;;;;;;;1032855;28;1087;-29
2022/03/28 03:38:04;;;;;;;;;;;;;;;;;;1035495;28;914;-31